Time;durP1;ratioP1;P1;durP2;ratioP2;P2;SDS_P1;SDS_P2;PMS_P1;PMS_P2;Temp;Humidity;BMP_temperature;BMP_pressure;BME280_temperature;BME280_humidity;BME280_pressure;Samples;Min_cycle;Max_cycle;Signal;HPM_P1;HPM_P2
2021/12/18 00:01:46;;;;;;;9.60;1.40;;;;;;;;;;5122026;27;20081;-88
2021/12/18 00:04:12;;;;;;;5.70;1.55;;;;;;;;;;5122996;27;20456;-87
2021/12/18 00:06:38;;;;;;;6.65;1.25;;;;;;;;;;5122225;27;20077;-87
2021/12/18 00:09:05;;;;;;;6.43;1.75;;;;;;;;;;5121720;27;20046;-87
2021/12/18 00:11:31;;;;;;;9.43;1.80;;;;;;;;;;5121489;27;20448;-88
2021/12/18 00:13:57;;;;;;;9.00;2.45;;;;;;;;;;5122003;27;20039;-87
2021/12/18 00:16:23;;;;;;;11.15;2.25;;;;;;;;;;5138941;27;20046;-87
2021/12/18 00:18:51;;;;;;;11.68;2.28;;;;;;;;;;5121821;27;20500;-87
2021/12/18 00:21:19;;;;;;;11.20;2.65;;;;;;;;;;5138897;27;20078;-87
2021/12/18 00:23:46;;;;;;;8.27;1.95;;;;;;;;;;5138768;27;20082;-87
2021/12/18 00:26:12;;;;;;;5.35;2.08;;;;;;;;;;5121511;27;20068;-88
2021/12/18 00:28:38;;;;;;;14.00;2.33;;;;;;;;;;5138745;27;20043;-87
2021/12/18 00:31:06;;;;;;;13.07;2.53;;;;;;;;;;5121264;27;20035;-87
2021/12/18 00:33:32;;;;;;;5.80;1.77;;;;;;;;;;5121273;27;20521;-87
2021/12/18 00:35:58;;;;;;;11.35;2.67;;;;;;;;;;5121457;27;20042;-87
2021/12/18 00:38:29;;;;;;;4.55;2.00;;;;;;;;;;5121354;27;20038;-88
2021/12/18 00:41:13;;;;;;;7.63;1.90;;;;;;;;;;5138485;27;20042;-88
2021/12/18 00:46:25;;;;;;;12.77;2.53;;;;;;;;;;5137799;27;20068;-87
2021/12/18 00:48:51;;;;;;;10.20;2.03;;;;;;;;;;5122488;27;20478;-88
2021/12/18 00:51:17;;;;;;;11.20;2.45;;;;;;;;;;5138112;27;20490;-87
2021/12/18 00:53:43;;;;;;;4.43;1.77;;;;;;;;;;5121217;27;20042;-87
2021/12/18 00:56:09;;;;;;;10.20;2.50;;;;;;;;;;5120685;27;20041;-88
2021/12/18 00:58:35;;;;;;;4.68;2.00;;;;;;;;;;5121066;27;20043;-88
2021/12/18 01:01:06;;;;;;;5.88;2.10;;;;;;;;;;5138577;27;20035;-87
2021/12/18 01:03:33;;;;;;;7.47;1.85;;;;;;;;;;5138064;27;20099;-88
2021/12/18 01:05:59;;;;;;;10.55;2.75;;;;;;;;;;5137892;27;20126;-87
2021/12/18 01:08:25;;;;;;;10.30;2.45;;;;;;;;;;5137722;27;20466;-87
2021/12/18 01:13:47;;;;;;;7.00;1.80;;;;;;;;;;5138069;27;20046;-87
2021/12/18 01:16:20;;;;;;;6.70;2.13;;;;;;;;;;5138557;27;20380;-87
2021/12/18 01:24:15;;;;;;;13.35;2.63;;;;;;;;;;5156096;27;20046;-87
2021/12/18 01:26:41;;;;;;;4.32;1.60;;;;;;;;;;5137671;27;20070;-88
2021/12/18 01:29:07;;;;;;;4.43;1.38;;;;;;;;;;5120826;27;20101;-87
2021/12/18 01:31:33;;;;;;;7.93;1.50;;;;;;;;;;5138467;27;20035;-87
2021/12/18 01:33:59;;;;;;;13.10;2.10;;;;;;;;;;5120570;27;20042;-87
2021/12/18 01:36:28;;;;;;;3.72;1.60;;;;;;;;;;5121113;27;20097;-87
2021/12/18 01:38:54;;;;;;;5.60;1.55;;;;;;;;;;5121486;27;20042;-87
2021/12/18 01:41:20;;;;;;;9.25;1.27;;;;;;;;;;5120710;27;20425;-87
2021/12/18 01:46:41;;;;;;;14.45;2.13;;;;;;;;;;5143033;27;20034;-88
2021/12/18 01:52:18;;;;;;;45.60;3.50;;;;;;;;;;5142801;27;20123;-88
2021/12/18 01:54:45;;;;;;;17.25;2.80;;;;;;;;;;5125318;27;20043;-87
2021/12/18 01:57:11;;;;;;;4.78;2.20;;;;;;;;;;5125644;27;20050;-88
2021/12/18 01:59:39;;;;;;;5.72;2.03;;;;;;;;;;5125230;27;20046;-87
2021/12/18 02:02:08;;;;;;;10.35;2.30;;;6.60;99.90;;;;;;5125190;27;20098;-88
2021/12/18 02:04:34;;;;;;;25.48;4.13;;;;;;;;;;5124972;27;20049;-88
2021/12/18 02:07:01;;;;;;;6.15;2.78;;;;;;;;;;5124081;27;20086;-88
2021/12/18 02:09:39;;;;;;;3.28;2.05;;;;;;;;;;5123681;27;20110;-88
2021/12/18 02:12:05;;;;;;;4.88;2.25;;;;;;;;;;5124356;27;20122;-87
2021/12/18 02:19:58;;;;;;;4.00;1.30;;;;;;;;;;5141151;27;20042;-88
2021/12/18 02:22:26;;;;;;;2.38;1.40;;;;;;;;;;5123608;27;20091;-88
2021/12/18 02:24:52;;;;;;;6.10;0.90;;;;;;;;;;5124193;27;20043;-88
2021/12/18 02:27:18;;;;;;;14.75;1.50;;;;;;;;;;5123695;27;20042;-88
2021/12/18 02:29:45;;;;;;;3.72;1.30;;;;;;;;;;5140856;27;20074;-88
2021/12/18 02:32:12;;;;;;;26.52;3.63;;;;;;;;;;5124304;27;20050;-88
2021/12/18 02:34:41;;;;;;;21.65;2.08;;;;;;;;;;5124849;27;20039;-88
2021/12/18 02:37:10;;;;;;;6.53;1.42;;;;;;;;;;5124457;27;20099;-88
2021/12/18 02:40:47;;;;;;;15.43;1.60;;;;;;;;;;5123740;27;20110;-88
2021/12/18 02:42:41;;;;;;;24.17;1.67;;;;;;;;;;5140621;27;20034;-88
2021/12/18 02:45:07;;;;;;;22.83;2.10;;;;;;;;;;5123214;27;20086;-88
2021/12/18 02:47:33;;;;;;;32.17;2.60;;;;;;;;;;5139908;27;20041;-90
2021/12/18 02:50:00;;;;;;;16.85;1.92;;;;;;;;;;5122981;27;20050;-89
2021/12/18 02:52:30;;;;;;;16.48;2.03;;;;;;;;;;5123222;27;20050;-88
2021/12/18 02:54:56;;;;;;;14.18;1.90;;;;;;;;;;5140575;27;20594;-88
2021/12/18 02:57:22;;;;;;;31.48;2.25;;;;;;;;;;5124024;27;20039;-89
2021/12/18 02:59:51;;;;;;;7.38;1.30;;;6.70;99.90;;;;;;5122836;27;20125;-89
2021/12/18 03:02:18;;;;;;;22.02;1.92;;;;;;;;;;5123135;27;20418;-88
2021/12/18 03:04:48;;;;;;;5.03;1.30;;;;;;;;;;5122295;27;20050;-88
2021/12/18 03:07:17;;;;;;;9.75;1.40;;;;;;;;;;5140012;27;20094;-88
2021/12/18 03:18:57;;;;;;;8.57;1.50;;;;;;;;;;5123693;27;20152;-89
2021/12/18 03:25:38;;;;;;;4.53;0.95;;;;;;;;;;5136345;27;20049;-89
2021/12/18 03:28:05;;;;;;;3.55;2.50;;;;;;;;;;5119363;27;20051;-88
2021/12/18 03:30:31;;;;;;;9.90;1.27;;;;;;;;;;5118474;27;20074;-88
2021/12/18 03:32:58;;;;;;;5.15;1.33;;;;;;;;;;5137911;27;20043;-87
2021/12/18 03:35:25;;;;;;;1.80;1.42;;;;;;;;;;5120277;27;20059;-88
2021/12/18 03:37:51;;;;;;;3.60;1.58;;;;;;;;;;5119261;27;20391;-88
2021/12/18 03:40:20;;;;;;;6.45;1.30;;;;;;;;;;5119482;27;20440;-88
2021/12/18 03:42:46;;;;;;;2.60;1.20;;;;;;;;;;5136275;27;20526;-88
2021/12/18 03:45:13;;;;;;;14.93;1.95;;;;;;;;;;5119239;27;20122;-88
2021/12/18 03:47:39;;;;;;;11.63;2.25;;;;;;;;;;5136749;27;20412;-88
2021/12/18 03:50:06;;;;;;;4.63;1.35;;;;;;;;;;5118759;27;20127;-89
2021/12/18 03:52:32;;;;;;;4.40;1.85;;;;;;;;;;5117849;27;20042;-88
2021/12/18 03:54:59;;;;;;;4.53;2.08;;;;;;;;;;5135666;27;20125;-88
2021/12/18 03:57:25;;;;;;;8.02;2.20;;;;;;;;;;5119083;27;20104;-89
2021/12/18 03:59:51;;;;;;;3.85;1.85;;;;;;;;;;5118703;27;20043;-88
2021/12/18 04:02:17;;;;;;;6.22;2.40;;;;;;;;;;5118694;27;20039;-89
2021/12/18 04:04:44;;;;;;;3.85;1.85;;;;;;;;;;5118644;28;20047;-88
2021/12/18 04:07:10;;;;;;;4.32;2.00;;;;;;;;;;5118412;27;20051;-88
2021/12/18 04:09:36;;;;;;;3.78;1.60;;;;;;;;;;5118373;27;20051;-88
2021/12/18 04:12:03;;;;;;;3.20;2.10;;;;;;;;;;5121774;27;20081;-89
2021/12/18 04:14:29;;;;;;;5.93;2.28;;;;;;;;;;5122113;27;20407;-89
2021/12/18 04:16:55;;;;;;;7.38;2.97;;;;;;;;;;5121932;27;20038;-89
2021/12/18 04:19:21;;;;;;;7.30;2.28;;;;;;;;;;5121782;27;20505;-89
2021/12/18 04:21:48;;;;;;;8.70;3.03;;;;;;;;;;5121219;27;20081;-89
2021/12/18 04:24:14;;;;;;;6.00;2.80;;;;;;;;;;5122033;27;20528;-88
2021/12/18 04:26:40;;;;;;;12.75;3.75;;;;;;;;;;5138591;27;20039;-87
2021/12/18 04:29:07;;;;;;;6.95;3.08;;;;;;;;;;5122396;27;20179;-89
2021/12/18 04:31:34;;;;;;;13.05;4.45;;;;;;;;;;5121864;27;20070;-88
2021/12/18 04:34:00;;;;;;;11.05;3.92;;;;;;;;;;5122117;27;20045;-89
2021/12/18 04:36:26;;;;;;;10.15;4.35;;;;;;;;;;5121930;27;20039;-89
2021/12/18 04:38:52;;;;;;;11.10;4.47;;;;;;;;;;5121976;27;20571;-89
2021/12/18 04:41:24;;;;;;;8.63;3.97;;;;;;;;;;5138631;27;20039;-89
2021/12/18 04:43:51;;;;;;;11.98;4.50;;;;;;;;;;5138230;27;20483;-88
2021/12/18 04:46:19;;;;;;;10.25;4.70;;;;;;;;;;5138139;27;20042;-89
2021/12/18 04:48:45;;;;;;;9.30;4.75;;;;;;;;;;5121647;27;20055;-89
2021/12/18 04:51:11;;;;;;;10.35;5.03;;;;;;;;;;5122098;27;20074;-88
2021/12/18 04:53:37;;;;;;;12.68;5.55;;;;;;;;;;5122620;27;20042;-88
2021/12/18 04:56:03;;;;;;;14.02;5.47;;;;;;;;;;5122361;27;20095;-88
2021/12/18 04:58:29;;;;;;;16.73;6.38;;;;;;;;;;5121614;27;20046;-89
2021/12/18 05:00:55;;;;;;;10.98;5.55;;;;;;;;;;5137732;27;20380;-88
2021/12/18 05:03:21;;;;;;;15.65;5.53;;;;;;;;;;5137883;27;20047;-88
2021/12/18 05:05:48;;;;;;;18.00;6.45;;;;;;;;;;5120868;27;20410;-88
2021/12/18 05:08:14;;;;;;;21.90;6.30;;;;;;;;;;5120736;27;20057;-88
2021/12/18 05:10:40;;;;;;;11.10;5.57;;;;;;;;;;5122089;27;20034;-88
2021/12/18 05:13:06;;;;;;;13.40;4.90;;;;;;;;;;5137665;27;20046;-88
2021/12/18 05:15:32;;;;;;;11.25;5.03;;;;;;;;;;5120510;27;20482;-88
2021/12/18 05:17:58;;;;;;;11.20;5.05;;;;;;;;;;5136607;27;20487;-88
2021/12/18 05:20:24;;;;;;;11.70;4.32;;;;;;;;;;5120701;27;20038;-88
2021/12/18 05:22:51;;;;;;;11.13;4.55;;;;;;;;;;5137610;27;20440;-88
2021/12/18 05:25:17;;;;;;;9.35;3.65;;;;;;;;;;5138154;27;20062;-88
2021/12/18 05:27:43;;;;;;;7.72;3.70;;;;;;;;;;5121164;27;20108;-88
2021/12/18 05:30:10;;;;;;;10.30;4.45;;;;;;;;;;5120646;27;20046;-88
2021/12/18 05:32:36;;;;;;;9.43;4.28;;;;;;;;;;5137557;27;20513;-88
2021/12/18 05:35:02;;;;;;;14.45;4.93;;;;;;;;;;5137896;27;20106;-88
2021/12/18 05:37:47;;;;;;;10.02;3.72;;;;;;;;;;5120423;27;20129;-87
2021/12/18 05:40:14;;;;;;;9.23;4.00;;;;;;;;;;5120029;27;20047;-88
2021/12/18 05:42:41;;;;;;;9.25;4.28;;;;;;;;;;5120654;27;20043;-88
2021/12/18 05:45:07;;;;;;;10.75;4.38;;;;;;;;;;5121732;27;20096;-88
2021/12/18 05:47:33;;;;;;;10.85;4.30;;;;;;;;;;5121104;27;20057;-88
2021/12/18 05:49:59;;;;;;;11.43;4.68;;;;;;;;;;5137681;27;20046;-88
2021/12/18 05:52:26;;;;;;;14.15;4.75;;;;;;;;;;5137391;27;20038;-88
2021/12/18 05:54:52;;;;;;;9.18;3.30;;;;;;;;;;5121629;27;20035;-87
2021/12/18 05:57:18;;;;;;;11.25;4.13;;;;;;;;;;5120707;27;20046;-88
2021/12/18 05:59:44;;;;;;;11.00;3.75;;;;;;;;;;5137919;27;20536;-88
2021/12/18 06:02:11;;;;;;;9.40;4.70;;;;;;;;;;5121429;27;20053;-89
2021/12/18 06:04:37;;;;;;;9.10;4.25;;;;;;;;;;5120239;27;20527;-88
2021/12/18 06:07:05;;;;;;;9.77;4.82;;;;;;;;;;5156233;27;20055;-88
2021/12/18 06:09:31;;;;;;;9.30;3.97;;;;;;;;;;5137391;27;20039;-88
2021/12/18 06:11:58;;;;;;;12.27;4.07;;;;;;;;;;5137603;27;20041;-88
2021/12/18 06:14:24;;;;;;;11.85;5.05;;;;;;;;;;5120373;27;20039;-89
2021/12/18 06:16:50;;;;;;;13.52;4.60;;;;;;;;;;5119773;27;20039;-89
2021/12/18 06:19:16;;;;;;;9.90;4.53;;;;;;;;;;5120825;27;20046;-88
2021/12/18 06:21:42;;;;;;;14.93;5.13;;;;;;;;;;5121790;27;20110;-87
2021/12/18 06:24:08;;;;;;;15.60;4.68;;;;;;;;;;5121391;27;20078;-87
2021/12/18 06:26:34;;;;;;;18.20;5.18;;;;;;;;;;5120234;27;20039;-88
2021/12/18 06:29:00;;;;;;;17.13;4.88;;;;;;;;;;5139100;27;20046;-87
2021/12/18 06:31:26;;;;;;;9.93;4.22;;;;;;;;;;5141315;27;20046;-87
2021/12/18 06:33:53;;;;;;;13.18;4.90;;;;;;;;;;5124082;27;20050;-87
2021/12/18 06:36:19;;;;;;;15.40;4.93;;;;;;;;;;5123881;27;20047;-90
2021/12/18 06:38:45;;;;;;;18.35;5.20;;;;;;;;;;5123928;27;20038;-87
2021/12/18 06:41:14;;;;;;;13.93;4.47;;;;;;;;;;5141237;27;20039;-88
2021/12/18 06:43:40;;;;;;;9.95;5.00;;;;;;;;;;5124146;27;20427;-87
2021/12/18 06:46:06;;;;;;;10.95;4.13;;;;;;;;;;5123417;27;20039;-87
2021/12/18 06:48:33;;;;;;;13.70;4.68;;;;;;;;;;5140273;27;20046;-86
2021/12/18 06:50:59;;;;;;;12.20;4.50;;;;;;;;;;5140547;27;20134;-85
2021/12/18 06:53:25;;;;;;;14.48;5.00;;;;;;;;;;5123681;27;20460;-86
2021/12/18 06:55:51;;;;;;;12.80;5.03;;;;;;;;;;5123339;27;20129;-86
2021/12/18 06:58:17;;;;;;;8.52;3.45;;;;;;;;;;5123261;27;20190;-86
2021/12/18 07:00:43;;;;;;;8.63;3.38;;;;;;;;;;5122934;27;20039;-86
2021/12/18 07:03:09;;;;;;;10.07;3.97;;;;;;;;;;5122730;27;20047;-86
2021/12/18 07:05:35;;;;;;;10.68;4.43;;;;;;;;;;5122982;27;20130;-87
2021/12/18 07:08:01;;;;;;;16.10;4.35;;;;;;;;;;5122191;27;20051;-88
2021/12/18 07:10:27;;;;;;;12.35;4.20;;;;;;;;;;5123979;27;20046;-88
2021/12/18 07:12:53;;;;;;;13.20;3.83;;;;;;;;;;5123401;27;20483;-89
2021/12/18 07:15:19;;;;;;;7.97;3.47;;;;;;;;;;5123978;27;20467;-89
2021/12/18 07:17:45;;;;;;;12.73;4.47;;;;;;;;;;5123011;27;20091;-89
2021/12/18 07:20:11;;;;;;;10.40;3.45;;;;;;;;;;5123142;27;20041;-89
2021/12/18 07:22:39;;;;;;;7.30;3.63;;;;;;;;;;5123031;27;20502;-90
2021/12/18 07:25:05;;;;;;;8.52;3.30;;;;;;;;;;5122912;27;20054;-90
2021/12/18 07:27:31;;;;;;;9.40;3.30;;;;;;;;;;5123145;27;20376;-89
2021/12/18 07:29:57;;;;;;;11.95;3.70;;;;;;;;;;5122836;27;20155;-90
2021/12/18 07:32:23;;;;;;;7.85;3.45;;;;;;;;;;5124349;27;20074;-91
2021/12/18 07:34:49;;;;;;;6.30;3.30;;;;;;;;;;5123128;27;20045;-90
2021/12/18 07:37:15;;;;;;;6.53;3.08;;;;;;;;;;5140312;27;20049;-90
2021/12/18 07:39:41;;;;;;;12.80;3.63;;;;;;;;;;5139177;27;20038;-91
2021/12/18 07:42:08;;;;;;;10.30;3.97;;;;;;;;;;5139658;27;20074;-87
2021/12/18 07:44:34;;;;;;;5.32;2.97;;;;;;;;;;5123341;27;20100;-90
2021/12/18 07:47:00;;;;;;;7.30;2.88;;;;;;;;;;5139160;27;20042;-89
2021/12/18 07:49:26;;;;;;;6.93;3.10;;;;;;;;;;5122443;27;20117;-89
2021/12/18 07:51:54;;;;;;;7.32;3.30;;;;;;;;;;5138903;27;20561;-89
2021/12/18 07:54:20;;;;;;;5.32;3.13;;;;;;;;;;5139001;27;20054;-90
2021/12/18 07:56:46;;;;;;;9.18;3.38;;;;;;;;;;5122320;27;20043;-90
2021/12/18 07:59:12;;;;;;;11.48;3.60;;;;;;;;;;5139850;27;20129;-90
2021/12/18 08:01:38;;;;;;;6.57;3.03;;;;;;;;;;5139297;27;20046;-89
2021/12/18 08:04:04;;;;;;;5.95;2.65;;;;;;;;;;5157892;27;20051;-90
2021/12/18 08:06:30;;;;;;;11.43;2.60;;;;;;;;;;5138923;27;20049;-89
2021/12/18 08:08:56;;;;;;;4.85;2.78;;;;;;;;;;5138865;27;20141;-89
2021/12/18 08:11:22;;;;;;;5.60;2.95;;;;;;;;;;5121690;27;20046;-89
2021/12/18 08:13:48;;;;;;;9.93;2.55;;;;;;;;;;5121931;27;20048;-89
2021/12/18 08:16:14;;;;;;;8.68;2.90;;;;;;;;;;5139003;27;20066;-89
2021/12/18 08:18:40;;;;;;;10.15;2.60;;;;;;;;;;5122628;27;20047;-89
2021/12/18 08:21:06;;;;;;;10.85;2.67;;;;;;;;;;5122004;27;20087;-89
2021/12/18 08:23:33;;;;;;;8.35;2.55;;;;;;;;;;5139063;27;20049;-88
2021/12/18 08:25:59;;;;;;;6.10;2.55;;;;;;;;;;5122127;27;20035;-89
2021/12/18 08:28:25;;;;;;;10.93;3.15;;;;;;;;;;5122297;27;20503;-89
2021/12/18 08:30:51;;;;;;;6.45;2.50;;;;;;;;;;5121463;27;20483;-89
2021/12/18 08:33:18;;;;;;;5.57;2.65;;;;;;;;;;5121235;27;20129;-89
2021/12/18 08:35:44;;;;;;;7.63;2.40;;;;;;;;;;5138650;27;20035;-89
2021/12/18 08:38:10;;;;;;;9.05;3.15;;;;;;;;;;5121728;27;20085;-88
2021/12/18 08:40:37;;;;;;;8.88;2.50;;;;;;;;;;5121342;27;20046;-90
2021/12/18 08:43:03;;;;;;;6.75;2.08;;;;;;;;;;5121545;27;20050;-88
2021/12/18 08:45:29;;;;;;;9.13;3.53;;;;;;;;;;5122895;27;20039;-89
2021/12/18 08:47:55;;;;;;;4.22;2.00;;;;;;;;;;5122778;27;20126;-89
2021/12/18 08:50:22;;;;;;;8.95;1.80;;;;;;;;;;5157435;27;20042;-88
2021/12/18 08:52:49;;;;;;;9.38;2.40;;;;;;;;;;5139316;27;20035;-89
2021/12/18 08:55:16;;;;;;;6.50;3.10;;;;;;;;;;5138962;27;20502;-89
2021/12/18 08:57:42;;;;;;;9.02;3.22;;;;;;;;;;5139421;27;20501;-90
2021/12/18 09:00:09;;;;;;;7.60;3.53;;;;;;;;;;5121275;27;20034;-89
2021/12/18 09:02:36;;;;;;;11.25;3.55;;;;;;;;;;5122137;27;20038;-89
2021/12/18 09:05:02;;;;;;;8.77;3.30;;;;;;;;;;5137907;27;20125;-89
2021/12/18 09:07:28;;;;;;;10.77;3.45;;;;;;;;;;5137387;27;20050;-88
2021/12/18 09:09:54;;;;;;;8.35;3.38;;;;;;;;;;5137661;27;20047;-88
2021/12/18 09:12:20;;;;;;;9.10;3.22;;;;;;;;;;5138786;27;20043;-88
2021/12/18 09:14:46;;;;;;;8.93;3.08;;;;;;;;;;5120870;27;20042;-90
2021/12/18 09:17:12;;;;;;;8.52;2.90;;;;;;;;;;5137975;27;20045;-87
2021/12/18 09:19:38;;;;;;;9.60;3.70;;;;;;;;;;5137870;27;20042;-88
2021/12/18 09:22:06;;;;;;;16.52;2.92;;;;;;;;;;5138034;27;20043;-88
2021/12/18 09:24:32;;;;;;;6.25;2.78;;;;;;;;;;5137280;27;20047;-87
2021/12/18 09:26:58;;;;;;;11.88;3.60;;;;;;;;;;5120840;27;20046;-87
2021/12/18 09:29:24;;;;;;;7.57;2.78;;;;;;;;;;5138279;27;20046;-88
2021/12/18 09:31:50;;;;;;;5.25;3.00;;;;;;;;;;5139627;27;20038;-87
2021/12/18 09:34:17;;;;;;;8.25;3.40;;;;;;;;;;5138246;27;20078;-87
2021/12/18 09:36:43;;;;;;;5.03;3.22;;;;;;;;;;5138938;27;20047;-87
2021/12/18 09:39:09;;;;;;;5.60;2.47;;;;;;;;;;5122102;27;20038;-87
2021/12/18 09:41:36;;;;;;;3.70;2.15;;;;;;;;;;5120716;27;20074;-88
2021/12/18 09:44:02;;;;;;;6.43;3.05;;;;;;;;;;5138896;27;20129;-88
2021/12/18 09:46:30;;;;;;;3.95;2.88;;;;;;;;;;5121927;27;20134;-87
2021/12/18 09:48:57;;;;;;;10.40;2.88;;;;;;;;;;5121605;27;20046;-87
2021/12/18 09:51:29;;;;;;;5.88;3.03;;;;;;;;;;5139053;27;20035;-87
2021/12/18 09:53:56;;;;;;;8.50;3.28;;;;;;;;;;5139379;27;20077;-87
2021/12/18 09:56:23;;;;;;;5.22;3.42;;;8.50;99.90;;;;;;5121489;27;20050;-87
2021/12/18 09:58:49;;;;;;;7.97;2.97;;;;;;;;;;5138810;27;20094;-87
2021/12/18 10:01:16;;;;;;;5.82;3.65;;;;;;;;;;5123119;27;20047;-87
2021/12/18 10:03:43;;;;;;;7.55;3.78;;;;;;;;;;5124254;27;20050;-87
2021/12/18 10:06:42;;;;;;;5.43;3.53;;;;;;;;;;5125929;27;20039;-88
2021/12/18 10:09:12;;;;;;;6.72;2.90;;;;;;;;;;5022838;28;20135;-88
2021/12/18 10:11:47;;;;;;;5.10;3.72;;;;;;;;;;5023238;28;20036;-88
2021/12/18 10:14:13;;;;;;;9.68;3.53;;;;;;;;;;5040648;28;20076;-87
2021/12/18 10:16:46;;;;;;;4.93;2.40;;;;;;;;;;5023602;28;20044;-88
2021/12/18 10:19:29;;;;;;;5.80;2.63;;;;;;;;;;5039468;28;20088;-88
2021/12/18 10:21:58;;;;;;;8.70;3.40;;;;;;;;;;5023561;28;20049;-88
2021/12/18 10:24:25;;;;;;;7.30;3.05;;;;;;;;;;5024565;28;20453;-88
2021/12/18 10:26:51;;;;;;;9.13;3.60;;;;;;;;;;5041824;28;20505;-88
2021/12/18 10:29:36;;;;;;;7.40;2.88;;;;;;;;;;5025361;28;20043;-87
2021/12/18 10:32:07;;;;;;;7.65;3.38;;;;;;;;;;5057201;28;20438;-87
2021/12/18 10:34:33;;;;;;;8.13;3.22;;;;;;;;;;5056966;28;20049;-89
2021/12/18 10:37:13;;;;;;;7.03;3.17;;;;;;;;;;5023315;28;20049;-87
2021/12/18 10:39:44;;;;;;;10.13;3.30;;;;;;;;;;5022524;28;20048;-87
2021/12/18 10:42:17;;;;;;;4.47;3.30;;;;;;;;;;5022023;28;20091;-89
2021/12/18 10:44:55;;;;;;;8.05;3.03;;;;;;;;;;5043382;27;20057;-88
2021/12/18 10:47:22;;;;;;;9.75;3.47;;;;;;;;;;5123671;27;20047;-89
2021/12/18 10:49:48;;;;;;;7.05;2.78;;;;;;;;;;5141142;27;20043;-88
2021/12/18 10:52:14;;;;;;;4.07;2.65;;;;;;;;;;5123459;27;20491;-88
2021/12/18 10:54:40;;;;;;;4.97;2.80;;;;;;;;;;5123931;27;20051;-89
2021/12/18 10:57:18;;;;;;;14.13;2.75;;;;;;;;;;5123571;27;20099;-89
2021/12/18 10:59:48;;;;;;;8.63;2.47;;;8.50;99.90;;;;;;5140754;27;20064;-88
2021/12/18 11:02:15;;;;;;;8.48;4.03;;;;;;;;;;5123970;27;20050;-87
2021/12/18 11:04:43;;;;;;;5.88;3.17;;;;;;;;;;5140422;27;20045;-88
2021/12/18 11:07:33;;;;;;;12.85;3.17;;;8.40;99.90;;;;;;5123609;27;20050;-87
2021/12/18 11:10:39;;;;;;;8.32;2.25;;;8.60;99.90;;;;;;5123252;27;20136;-87
2021/12/18 11:15:50;;;;;;;7.30;3.00;;;;;;;;;;5138402;27;20050;-87
2021/12/18 11:18:17;;;;;;;3.92;2.45;;;;;;;;;;5124249;27;20050;-87
2021/12/18 11:20:43;;;;;;;8.38;3.65;;;;;;;;;;5123764;27;20039;-87
2021/12/18 11:23:09;;;;;;;14.75;3.47;;;;;;;;;;5140280;27;20187;-87
2021/12/18 11:25:39;;;;;;;8.65;3.38;;;;;;;;;;5123181;27;20038;-87
2021/12/18 11:28:06;;;;;;;5.10;3.17;;;;;;;;;;5123178;27;20125;-88
2021/12/18 11:30:32;;;;;;;8.52;3.25;;;;;;;;;;5123022;27;20087;-88
2021/12/18 11:32:58;;;;;;;4.53;3.42;;;;;;;;;;5139861;27;20187;-87
2021/12/18 11:35:24;;;;;;;3.92;2.63;;;;;;;;;;5123675;27;20038;-87
2021/12/18 11:37:54;;;;;;;6.13;2.85;;;;;;;;;;5139556;27;20084;-87
2021/12/18 11:40:23;;;;;;;14.32;4.07;;;8.60;99.90;;;;;;5122605;27;20050;-87
2021/12/18 11:42:49;;;;;;;11.38;2.97;;;;;;;;;;5122998;27;20074;-88
2021/12/18 11:45:15;;;;;;;6.40;2.20;;;;;;;;;;5139802;27;20039;-88
2021/12/18 11:47:45;;;;;;;6.95;2.30;;;;;;;;;;5122468;27;20074;-87
2021/12/18 11:50:31;;;;;;;5.20;2.60;;;;;;;;;;5122613;27;20045;-87
2021/12/18 11:53:01;;;;;;;7.22;2.45;;;;;;;;;;5123482;27;20099;-87
2021/12/18 11:55:28;;;;;;;7.22;2.83;;;;;;;;;;5159368;27;20057;-87
2021/12/18 11:57:59;;;;;;;6.15;2.80;;;;;;;;;;5140368;27;20505;-87
2021/12/18 12:00:31;;;;;;;5.05;2.42;;;;;;;;;;5123294;27;20043;-87
2021/12/18 12:02:58;;;;;;;7.22;2.70;;;;;;;;;;5157846;27;20047;-88
2021/12/18 12:05:38;;;;;;;9.27;2.67;;;;;;;;;;5139479;27;20118;-87
2021/12/18 12:08:28;;;;;;;9.02;3.15;;;;;;;;;;5121719;27;20047;-87
2021/12/18 12:11:15;;;;;;;11.23;3.85;;;;;;;;;;5138954;27;20402;-88
2021/12/18 12:13:56;;;;;;;4.75;2.55;;;;;;;;;;5139407;27;20051;-87
2021/12/18 12:16:44;;;;;;;7.60;3.08;;;8.90;99.90;;;;;;5139328;27;20046;-88
2021/12/18 12:19:20;;;;;;;4.68;2.35;;;;;;;;;;5121702;27;20038;-87
2021/12/18 12:21:48;;;;;;;7.43;2.47;;;8.90;99.90;;;;;;5122150;27;20057;-88
2021/12/18 12:24:15;;;;;;;10.27;3.10;;;;;;;;;;5121714;27;20531;-87
2021/12/18 12:26:42;;;;;;;8.18;2.88;;;;;;;;;;5138580;27;20039;-87
2021/12/18 12:29:08;;;;;;;6.55;2.13;;;;;;;;;;5121657;27;20043;-88
2021/12/18 12:31:35;;;;;;;5.55;2.88;;;;;;;;;;5138364;27;20081;-87
2021/12/18 12:34:20;;;;;;;5.00;2.92;;;;;;;;;;5122080;27;20517;-88
2021/12/18 12:36:47;;;;;;;9.77;3.03;;;;;;;;;;5121630;27;20047;-89
2021/12/18 12:39:14;;;;;;;6.97;2.92;;;;;;;;;;5123114;27;20045;-88
2021/12/18 12:41:42;;;;;;;6.93;2.97;;;;;;;;;;5139029;27;20091;-88
2021/12/18 12:44:35;;;;;;;8.50;2.78;;;;;;;;;;5158022;27;20042;-88
2021/12/18 12:47:14;;;;;;;8.75;2.10;;;;;;;;;;5139249;27;20474;-89
2021/12/18 12:49:41;;;;;;;4.95;2.67;;;;;;;;;;5138521;27;20043;-88
2021/12/18 12:52:11;;;;;;;7.00;2.55;;;;;;;;;;5156914;27;20423;-89
2021/12/18 12:54:45;;;;;;;12.07;2.83;;;;;;;;;;5158626;27;20043;-89
2021/12/18 12:57:23;;;;;;;5.57;2.67;;;;;;;;;;5122313;27;20634;-89
2021/12/18 12:59:50;;;;;;;5.75;2.10;;;;;;;;;;5138399;27;20487;-89
2021/12/18 13:02:16;;;;;;;10.27;2.47;;;;;;;;;;5137914;27;20042;-89
2021/12/18 13:04:42;;;;;;;8.07;2.33;;;;;;;;;;5120797;27;20054;-88
2021/12/18 13:07:10;;;;;;;5.95;2.55;;;;;;;;;;5138648;27;20182;-88
2021/12/18 13:09:43;;;;;;;12.68;2.72;;;;;;;;;;5121734;27;20046;-88
2021/12/18 13:12:10;;;;;;;9.00;2.67;;;;;;;;;;5140059;27;20038;-88
2021/12/18 13:14:37;;;;;;;10.15;2.67;;;;;;;;;;5140123;27;20042;-88
2021/12/18 13:17:15;;;;;;;7.40;2.45;;;;;;;;;;5123893;27;20049;-88
2021/12/18 13:19:52;;;;;;;7.68;2.38;;;;;;;;;;5124537;27;20050;-88
2021/12/18 13:22:18;;;;;;;8.23;2.70;;;;;;;;;;5123459;27;20049;-88
2021/12/18 13:24:44;;;;;;;5.10;2.35;;;;;;;;;;5124089;27;20546;-88
2021/12/18 13:27:11;;;;;;;3.30;1.95;;;;;;;;;;5158820;27;20043;-88
2021/12/18 13:29:37;;;;;;;6.50;3.08;;;;;;;;;;5159320;27;20095;-88
2021/12/18 13:32:05;;;;;;;9.05;3.53;;;;;;;;;;5123099;27;20045;-88
2021/12/18 13:34:34;;;;;;;4.93;1.98;;;;;;;;;;5123312;27;20050;-88
2021/12/18 13:37:12;;;;;;;4.07;2.13;;;;;;;;;;5123257;27;20035;-88
2021/12/18 13:39:43;;;;;;;12.93;2.15;;;;;;;;;;5139820;27;20092;-89
2021/12/18 13:42:14;;;;;;;5.07;2.08;;;;;;;;;;5159536;27;20049;-88
2021/12/18 13:44:49;;;;;;;7.60;2.30;;;;;;;;;;5123034;27;20525;-88
2021/12/18 13:47:15;;;;;;;6.15;2.65;;;;;;;;;;5139243;27;20038;-88
2021/12/18 13:49:41;;;;;;;4.50;2.05;;;;;;;;;;5138844;27;20054;-88
2021/12/18 13:52:07;;;;;;;7.05;2.45;;;;;;;;;;5122482;27;20045;-88
2021/12/18 13:54:34;;;;;;;4.82;2.60;;;;;;;;;;5122709;27;20138;-88
2021/12/18 13:57:00;;;;;;;4.85;2.08;;;;;;;;;;5122839;27;20042;-88
2021/12/18 13:59:26;;;;;;;5.50;2.33;;;;;;;;;;5138808;27;20081;-88
2021/12/18 14:01:52;;;;;;;6.43;2.63;;;;;;;;;;5120639;27;20035;-88
2021/12/18 14:04:20;;;;;;;5.75;2.45;;;;;;;;;;5119831;27;20046;-86
2021/12/18 14:06:47;;;;;;;7.90;2.83;;;;;;;;;;5138138;27;20115;-89
2021/12/18 14:09:33;;;;;;;6.40;2.47;;;;;;;;;;5120275;27;20114;-88
2021/12/18 14:12:07;;;;;;;3.83;2.15;;;;;;;;;;5120597;27;20057;-86
2021/12/18 14:14:42;;;;;;;7.03;3.03;;;;;;;;;;5137373;27;20055;-86
2021/12/18 14:17:09;;;;;;;8.13;2.47;;;;;;;;;;5121002;27;20039;-87
2021/12/18 14:19:37;;;;;;;5.88;2.53;;;;;;;;;;5120640;27;20069;-87
2021/12/18 14:22:05;;;;;;;8.38;4.35;;;;;;;;;;5121219;27;20038;-88
2021/12/18 14:24:31;;;;;;;6.88;2.85;;;;;;;;;;5137919;27;20129;-87
2021/12/18 14:27:05;;;;;;;6.85;2.72;;;8.40;99.90;;;;;;5121558;27;20118;-87
2021/12/18 14:29:55;;;;;;;13.13;2.42;;;8.40;99.90;;;;;;5120047;27;20555;-87
2021/12/18 14:32:22;;;;;;;7.63;2.58;;;;;;;;;;5120657;27;20083;-87
2021/12/18 14:34:48;;;;;;;7.43;1.85;;;;;;;;;;5119892;27;20031;-86
2021/12/18 14:37:19;;;;;;;7.03;2.53;;;;;;;;;;5119348;27;20049;-86
2021/12/18 14:39:44;;;;;;;10.70;3.33;;;;;;;;;;5136435;27;20551;-86
2021/12/18 14:42:17;;;;;;;7.47;3.08;;;;;;;;;;5119712;27;20125;-87
2021/12/18 14:44:52;;;;;;;4.38;2.65;;;;;;;;;;5119404;27;20479;-86
2021/12/18 14:47:24;;;;;;;7.22;3.13;;;;;;;;;;5136407;27;20049;-86
2021/12/18 14:50:11;;;;;;;7.10;3.15;;;8.50;99.90;;;;;;5121365;27;20047;-87
2021/12/18 14:53:03;;;;;;;10.50;2.53;;;8.30;99.90;;;;;;5123282;27;20402;-86
2021/12/18 14:55:29;;;;;;;5.88;3.10;;;;;;;;;;5122852;27;20172;-86
2021/12/18 14:58:00;;;;;;;9.57;2.90;;;;;;;;;;5123406;27;20042;-86
2021/12/18 15:00:31;;;;;;;6.65;3.20;;;;;;;;;;5123427;27;20045;-86
2021/12/18 15:03:02;;;;;;;13.57;3.83;;;;;;;;;;5122963;27;20057;-86
2021/12/18 15:05:42;;;;;;;11.35;2.90;;;;;;;;;;5123088;27;20487;-86
2021/12/18 15:08:12;;;;;;;5.85;2.38;;;;;;;;;;5119673;27;20487;-86
2021/12/18 15:10:50;;;;;;;4.80;3.08;;;8.30;99.90;;;;;;5119611;27;20077;-87
2021/12/18 15:13:17;;;;;;;6.25;2.92;;;;;;;;;;5136947;27;20496;-87
2021/12/18 15:15:44;;;;;;;6.70;3.10;;;;;;;;;;5119675;27;20479;-87
2021/12/18 15:18:11;;;;;;;4.78;2.22;;;;;;;;;;5138802;27;20047;-87
2021/12/18 15:20:37;;;;;;;6.10;2.92;;;;;;;;;;5137868;27;20043;-87